createdAt,value
2022-11-14T00:01:29.375Z,89.25
2022-11-14T00:03:57.602Z,88.65
2022-11-14T00:06:25.802Z,89.01
2022-11-14T00:08:54.008Z,88.14
2022-11-14T00:11:22.235Z,87.65
2022-11-14T00:13:50.440Z,88.96
2022-11-14T00:16:18.664Z,88.07
2022-11-14T00:18:48.253Z,88.21
2022-11-14T00:21:16.485Z,88.35
2022-11-14T00:23:44.652Z,88.55
2022-11-14T00:26:12.897Z,88.05
2022-11-14T00:28:41.103Z,87.67
2022-11-14T00:31:10.883Z,88.03
2022-11-14T00:33:39.808Z,88.52
2022-11-14T00:36:10.101Z,88.49
2022-11-14T00:38:38.308Z,88.71
2022-11-14T00:41:06.961Z,88.75
2022-11-14T00:43:35.128Z,88.43
2022-11-14T00:46:03.368Z,87.48
2022-11-14T00:48:32.119Z,87.57
2022-11-14T00:51:00.479Z,87.96
2022-11-14T00:53:30.100Z,88.23
2022-11-14T00:55:58.375Z,87.55
2022-11-14T00:58:26.803Z,88.37
2022-11-14T01:00:56.524Z,87.37
2022-11-14T01:03:24.968Z,87.54
2022-11-14T01:05:53.525Z,88.00
2022-11-14T01:08:21.793Z,87.25
2022-11-14T01:10:52.350Z,87.78
2022-11-14T01:13:20.939Z,88.10
2022-11-14T01:15:50.821Z,88.23
2022-11-14T01:18:21.259Z,88.62
2022-11-14T01:20:50.466Z,88.24
2022-11-14T01:23:18.923Z,88.06
2022-11-14T01:25:47.438Z,87.84
2022-11-14T01:28:20.027Z,88.18
2022-11-14T01:30:48.247Z,88.09
2022-11-14T01:33:16.487Z,87.74
2022-11-14T01:35:44.670Z,88.70
2022-11-14T01:38:15.787Z,87.87
2022-11-14T01:40:45.873Z,88.00
2022-11-14T01:43:27.946Z,88.69
2022-11-14T01:46:00.695Z,88.06
2022-11-14T01:48:37.387Z,87.50
2022-11-14T01:51:19.066Z,87.96
2022-11-14T01:53:49.861Z,88.03
2022-11-14T01:56:27.184Z,87.28
2022-11-14T01:59:04.095Z,86.92
2022-11-14T02:01:36.927Z,87.79
2022-11-14T02:04:08.886Z,88.00
2022-11-14T02:06:41.446Z,88.22
2022-11-14T02:09:09.760Z,87.00
2022-11-14T02:11:41.670Z,87.38
2022-11-14T02:14:11.927Z,87.59
2022-11-14T02:16:51.709Z,87.87
2022-11-14T02:19:43.468Z,87.98
2022-11-14T02:22:13.034Z,88.06
2022-11-14T02:24:41.323Z,88.04
2022-11-14T02:27:11.375Z,87.38
2022-11-14T02:29:41.747Z,88.01
2022-11-14T02:32:11.031Z,87.77
2022-11-14T02:34:39.963Z,87.99
2022-11-14T02:37:09.155Z,87.96
2022-11-14T02:39:39.273Z,87.28
2022-11-14T02:42:07.782Z,87.50
2022-11-14T02:44:35.956Z,87.45
2022-11-14T02:47:04.246Z,88.46
2022-11-14T02:49:32.413Z,87.87
2022-11-14T02:52:00.585Z,88.13
2022-11-14T02:54:28.806Z,87.26
2022-11-14T02:56:58.354Z,88.15
2022-11-14T02:59:26.533Z,87.25
2022-11-14T03:01:57.285Z,86.98
2022-11-14T03:04:25.501Z,87.14
2022-11-14T03:06:53.717Z,87.81
2022-11-14T03:09:21.972Z,87.71
2022-11-14T03:11:50.712Z,87.98
2022-11-14T03:14:20.293Z,87.67
2022-11-14T03:16:48.525Z,87.52
2022-11-14T03:19:16.773Z,87.18
2022-11-14T03:21:46.194Z,88.03
2022-11-14T03:24:16.932Z,87.48
2022-11-14T03:26:45.128Z,87.16
2022-11-14T03:29:13.341Z,87.50
2022-11-14T03:31:42.955Z,87.03
2022-11-14T03:34:11.717Z,87.21
2022-11-14T03:36:40.713Z,86.71
2022-11-14T03:39:09.181Z,87.96
2022-11-14T03:41:37.373Z,87.59
2022-11-14T03:44:05.860Z,87.58
2022-11-14T03:46:33.986Z,87.87
2022-11-14T03:49:03.574Z,86.96
2022-11-14T03:51:31.807Z,86.98
2022-11-14T03:54:00.034Z,87.66
2022-11-14T03:56:28.284Z,86.81
2022-11-14T03:58:56.484Z,87.76
2022-11-14T04:01:24.785Z,87.19
2022-11-14T04:03:53.539Z,87.56
2022-11-14T04:06:23.569Z,86.80
2022-11-14T04:08:52.376Z,87.20
2022-11-14T04:11:21.122Z,87.53
2022-11-14T04:13:49.327Z,86.50
2022-11-14T04:16:17.456Z,86.91
2022-11-14T04:18:45.690Z,87.31
2022-11-14T04:21:14.158Z,86.68
2022-11-14T04:23:43.685Z,86.85
2022-11-14T04:26:12.079Z,86.27
2022-11-14T04:28:40.361Z,86.89
2022-11-14T04:31:08.814Z,86.51
2022-11-14T04:33:37.361Z,87.16
2022-11-14T04:36:06.266Z,86.34
2022-11-14T04:38:34.544Z,86.11
2022-11-14T04:41:04.290Z,86.47
2022-11-14T04:43:32.595Z,86.59
2022-11-14T04:46:00.743Z,87.05
2022-11-14T04:48:29.176Z,86.87
2022-11-14T04:50:57.642Z,87.01
2022-11-14T04:53:25.835Z,86.91
2022-11-14T04:55:54.025Z,86.53
2022-11-14T04:58:23.604Z,86.30
2022-11-14T05:00:51.844Z,86.86
2022-11-14T05:03:20.051Z,85.88
2022-11-14T05:05:48.261Z,86.21
2022-11-14T05:08:16.408Z,86.86
2022-11-14T05:10:45.409Z,85.81
2022-11-14T05:13:14.282Z,86.15
2022-11-14T05:15:43.892Z,86.34
2022-11-14T05:18:13.248Z,86.48
2022-11-14T05:20:41.497Z,86.11
2022-11-14T05:23:20.600Z,86.38
2022-11-14T05:25:48.980Z,85.91
2022-11-14T05:28:17.178Z,85.06
2022-11-14T05:30:46.893Z,86.35
2022-11-14T05:33:15.085Z,85.81
2022-11-14T05:35:43.306Z,85.63
2022-11-14T05:38:13.832Z,85.31
2022-11-14T05:40:41.974Z,85.22
2022-11-14T05:43:10.143Z,86.44
2022-11-14T05:45:38.371Z,85.54
2022-11-14T05:48:08.182Z,85.77
2022-11-14T05:50:36.345Z,85.56
2022-11-14T05:53:04.621Z,86.01
2022-11-14T05:55:32.847Z,86.18
2022-11-14T05:58:01.506Z,86.08
2022-11-14T06:00:29.910Z,85.14
2022-11-14T06:02:58.538Z,85.75
2022-11-14T06:05:28.148Z,86.03
2022-11-14T06:07:57.648Z,85.49
2022-11-14T06:10:29.458Z,85.76
2022-11-14T06:12:57.690Z,85.85
2022-11-14T06:15:25.831Z,85.03
2022-11-14T06:17:54.629Z,85.42
2022-11-14T06:20:23.035Z,85.99
2022-11-14T06:22:55.844Z,85.72
2022-11-14T06:25:24.054Z,85.35
2022-11-14T06:27:52.253Z,86.06
2022-11-14T06:30:21.144Z,85.08
2022-11-14T06:32:49.508Z,85.14
2022-11-14T06:35:17.864Z,86.08
2022-11-14T06:37:46.021Z,85.32
2022-11-14T06:40:16.017Z,85.99
2022-11-14T06:42:44.193Z,84.72
2022-11-14T06:45:12.760Z,85.89
2022-11-14T06:47:41.012Z,86.03
2022-11-14T06:50:10.282Z,85.61
2022-11-14T06:52:38.461Z,85.22
2022-11-14T06:55:07.794Z,85.66
2022-11-14T06:57:37.476Z,85.85
2022-11-14T07:00:07.157Z,85.42
2022-11-14T07:02:35.555Z,84.72
2022-11-14T07:05:03.796Z,84.81
2022-11-14T07:07:32.517Z,86.07
2022-11-14T07:10:00.770Z,85.93
2022-11-14T07:12:29.622Z,85.80
2022-11-14T07:14:59.206Z,85.24
2022-11-14T07:17:31.217Z,85.79
2022-11-14T07:19:59.655Z,85.74
2022-11-14T07:22:27.845Z,85.10
2022-11-14T07:24:55.989Z,85.86
2022-11-14T07:27:24.194Z,85.83
2022-11-14T07:29:52.332Z,85.54
2022-11-14T07:32:21.859Z,85.81
2022-11-14T07:34:50.036Z,85.46
2022-11-14T07:37:18.327Z,85.54
2022-11-14T07:39:47.122Z,85.76
2022-11-14T07:42:15.684Z,85.08
2022-11-14T07:44:44.060Z,85.55
2022-11-14T07:47:12.309Z,84.92
2022-11-14T07:49:42.097Z,85.41
2022-11-14T07:52:10.278Z,85.39
2022-11-14T07:54:38.419Z,85.16
2022-11-14T07:57:06.726Z,85.62
2022-11-14T07:59:34.932Z,84.32
2022-11-14T08:02:03.139Z,84.43
2022-11-14T08:04:31.383Z,85.34
2022-11-14T08:07:01.212Z,84.83
2022-11-14T08:09:29.616Z,85.29
2022-11-14T08:11:57.809Z,85.64
2022-11-14T08:14:25.977Z,85.47
2022-11-14T08:16:54.200Z,84.42
2022-11-14T08:19:22.373Z,84.69
2022-11-14T08:21:50.686Z,85.05
2022-11-14T08:24:20.222Z,84.37
2022-11-14T08:26:48.379Z,84.17
2022-11-14T08:29:16.566Z,84.73
2022-11-14T08:31:44.761Z,84.20
2022-11-14T08:34:12.988Z,84.16
2022-11-14T08:36:41.199Z,84.08
2022-11-14T08:39:09.373Z,83.65
2022-11-14T08:41:38.861Z,83.56
2022-11-14T08:44:07.389Z,84.29
2022-11-14T08:46:36.381Z,83.85
2022-11-14T08:49:04.613Z,83.65
2022-11-14T08:51:32.797Z,83.21
2022-11-14T08:54:00.998Z,83.80
2022-11-14T08:56:29.233Z,83.16
2022-11-14T08:58:58.823Z,83.85
2022-11-14T09:01:27.038Z,82.98
2022-11-14T09:03:59.662Z,83.44
2022-11-14T09:06:28.316Z,83.00
2022-11-14T09:08:57.703Z,83.08
2022-11-14T09:11:25.924Z,82.20
2022-11-14T09:13:54.098Z,82.21
2022-11-14T09:16:23.741Z,82.32
2022-11-14T09:18:52.207Z,82.81
2022-11-14T09:21:20.474Z,81.64
2022-11-14T09:23:49.409Z,81.71
2022-11-14T09:26:18.378Z,81.47
2022-11-14T09:28:46.892Z,82.20
2022-11-14T09:31:15.351Z,81.94
2022-11-14T09:33:44.934Z,81.08
2022-11-14T09:36:15.933Z,81.15
2022-11-14T09:38:44.667Z,81.25
2022-11-14T09:41:26.171Z,80.89
2022-11-14T09:44:34.039Z,80.97
2022-11-14T09:47:06.859Z,80.64
2022-11-14T09:49:40.130Z,80.79
2022-11-14T09:52:21.277Z,80.55
2022-11-14T09:54:55.972Z,80.52
2022-11-14T09:57:24.376Z,80.13
2022-11-14T09:59:52.981Z,80.65
2022-11-14T10:02:35.755Z,80.25
2022-11-14T10:05:23.503Z,79.83
2022-11-14T10:08:10.937Z,80.11
2022-11-14T10:10:51.636Z,79.79
2022-11-14T10:13:45.675Z,80.19
2022-11-14T10:16:20.045Z,79.96
2022-11-14T10:19:12.444Z,79.58
2022-11-14T10:22:00.252Z,79.44
2022-11-14T10:24:51.706Z,79.55
2022-11-14T10:27:25.333Z,79.02
2022-11-14T10:30:09.123Z,78.91
2022-11-14T10:33:11.845Z,78.97
2022-11-14T10:35:44.075Z,78.95
2022-11-14T10:38:21.484Z,78.54
2022-11-14T10:40:53.857Z,78.29
2022-11-14T10:43:28.626Z,77.89
2022-11-14T10:46:04.800Z,77.86
2022-11-14T10:48:37.312Z,77.64
2022-11-14T10:51:14.160Z,77.48
2022-11-14T10:53:54.347Z,77.34
2022-11-14T10:56:23.008Z,77.24
2022-11-14T10:58:51.262Z,77.29
2022-11-14T11:01:39.579Z,77.36
2022-11-14T11:04:21.620Z,76.94
2022-11-14T11:06:51.608Z,76.48
2022-11-14T11:09:45.507Z,76.53
2022-11-14T11:12:19.359Z,76.42
2022-11-14T11:14:50.129Z,76.41
2022-11-14T11:17:28.405Z,76.71
2022-11-14T11:20:34.092Z,76.90
2022-11-14T11:23:07.004Z,76.13
2022-11-14T11:25:37.634Z,76.53
2022-11-14T11:28:12.621Z,76.33
2022-11-14T11:30:41.437Z,77.09
2022-11-14T11:33:25.380Z,76.30
2022-11-14T11:35:57.642Z,76.37
2022-11-14T11:38:28.722Z,76.36
2022-11-14T11:41:15.437Z,76.50
2022-11-14T11:43:58.324Z,76.19
2022-11-14T11:46:33.700Z,76.71
2022-11-14T11:49:19.732Z,76.73
2022-11-14T11:51:50.963Z,76.34
2022-11-14T11:54:23.160Z,76.22
2022-11-14T11:56:58.789Z,76.43
2022-11-14T11:59:34.829Z,76.37
2022-11-14T12:02:13.335Z,76.15
2022-11-14T12:04:41.606Z,76.57
2022-11-14T12:07:15.769Z,76.17
2022-11-14T12:12:59.229Z,75.96
2022-11-14T12:15:38.941Z,75.91
2022-11-14T12:18:39.162Z,76.05
2022-11-14T12:21:14.299Z,75.80
2022-11-14T12:24:16.840Z,75.83
2022-11-14T12:26:58.704Z,75.32
2022-11-14T12:29:51.552Z,75.22
2022-11-14T12:32:28.566Z,75.21
2022-11-14T12:34:57.018Z,74.79
2022-11-14T12:37:33.696Z,74.72
2022-11-14T12:40:06.351Z,74.86
2022-11-14T12:42:35.317Z,74.69
2022-11-14T12:45:05.406Z,74.64
2022-11-14T12:47:33.691Z,74.43
2022-11-14T12:50:07.345Z,73.90
2022-11-14T12:52:49.845Z,73.24
2022-11-14T12:55:57.318Z,72.20
2022-11-14T12:58:47.275Z,71.94
2022-11-14T13:01:49.689Z,71.05
2022-11-14T13:04:33.229Z,69.86
2022-11-14T13:07:32.779Z,68.99
2022-11-14T13:10:14.685Z,68.08
2022-11-14T13:13:01.943Z,68.15
2022-11-14T13:15:51.158Z,68.80
2022-11-14T13:18:43.634Z,69.04
2022-11-14T13:21:45.048Z,69.38
2022-11-14T13:24:16.232Z,69.08
2022-11-14T13:26:50.925Z,69.27
2022-11-14T13:29:56.166Z,69.91
2022-11-14T13:33:07.667Z,70.09
2022-11-14T13:36:02.191Z,70.42
2022-11-14T13:39:08.406Z,70.52
2022-11-14T13:42:23.550Z,70.72
2022-11-14T13:45:42.022Z,71.14
2022-11-14T13:48:48.416Z,71.15
2022-11-14T13:54:17.515Z,71.59
2022-11-14T13:57:00.927Z,71.97
2022-11-14T13:59:51.499Z,71.80
2022-11-14T14:02:58.865Z,71.96
2022-11-14T14:05:39.117Z,71.96
2022-11-14T14:08:22.968Z,72.19
2022-11-14T14:11:07.205Z,72.39
2022-11-14T14:13:52.490Z,72.69
2022-11-14T14:16:36.175Z,72.67
2022-11-14T14:19:14.058Z,72.41
2022-11-14T14:21:50.176Z,73.04
2022-11-14T14:24:43.028Z,73.00
2022-11-14T14:27:21.804Z,73.18
2022-11-14T14:30:02.913Z,73.51
2022-11-14T14:32:31.125Z,73.34
2022-11-14T14:35:00.625Z,73.75
2022-11-14T14:37:30.738Z,74.00
2022-11-14T14:40:03.262Z,74.21
2022-11-14T14:42:40.363Z,74.57
2022-11-14T14:45:17.824Z,74.22
2022-11-14T14:47:48.572Z,74.81
2022-11-14T14:50:21.184Z,74.83
2022-11-14T14:52:57.999Z,74.83
2022-11-14T14:55:30.510Z,74.80
2022-11-14T14:58:22.069Z,75.17
2022-11-14T15:00:55.276Z,75.69
2022-11-14T15:03:25.907Z,75.37
2022-11-14T15:06:00.970Z,75.76
2022-11-14T15:08:31.480Z,75.80
2022-11-14T15:11:02.711Z,76.65
2022-11-14T15:13:32.131Z,76.80
2022-11-14T15:16:01.810Z,76.77
2022-11-14T15:18:33.093Z,76.47
2022-11-14T15:21:16.410Z,77.32
2022-11-14T15:23:44.887Z,77.51
2022-11-14T15:26:18.161Z,76.98
2022-11-14T15:28:46.804Z,78.33
2022-11-14T15:31:20.561Z,78.23
2022-11-14T15:34:03.206Z,77.54
2022-11-14T15:36:31.517Z,78.99
2022-11-14T15:39:02.829Z,78.81
2022-11-14T15:41:33.154Z,78.89
2022-11-14T15:44:05.527Z,78.92
2022-11-14T15:46:43.961Z,79.05
2022-11-14T15:49:22.772Z,79.22
2022-11-14T15:51:56.281Z,78.92
2022-11-14T15:54:30.813Z,79.85
2022-11-14T15:57:02.786Z,79.28
2022-11-14T15:59:31.971Z,80.04
2022-11-14T16:02:05.795Z,80.14
2022-11-14T16:04:37.142Z,80.46
2022-11-14T16:07:06.088Z,80.81
2022-11-14T16:09:34.364Z,80.54
2022-11-14T16:12:04.214Z,80.44
2022-11-14T16:14:42.641Z,80.43
2022-11-14T16:17:15.393Z,81.05
2022-11-14T16:19:43.928Z,80.85
2022-11-14T16:22:15.731Z,80.83
2022-11-14T16:24:43.886Z,80.16
2022-11-14T16:27:13.458Z,80.19
2022-11-14T16:29:41.660Z,80.20
2022-11-14T16:32:11.674Z,80.90
2022-11-14T16:34:39.974Z,80.73
2022-11-14T16:37:12.698Z,79.99
2022-11-14T16:39:41.289Z,80.24
2022-11-14T16:42:13.231Z,80.11
2022-11-14T16:44:46.334Z,80.59
2022-11-14T16:47:19.848Z,80.08
2022-11-14T16:49:48.018Z,80.70
2022-11-14T16:52:17.100Z,80.18
2022-11-14T16:54:45.275Z,80.05
2022-11-14T16:57:14.827Z,80.18
2022-11-14T16:59:43.092Z,80.51
2022-11-14T17:02:16.118Z,81.30
2022-11-14T17:04:45.098Z,81.68
2022-11-14T17:07:15.116Z,80.71
2022-11-14T17:09:44.925Z,81.74
2022-11-14T17:12:14.490Z,82.27
2022-11-14T17:14:42.599Z,81.71
2022-11-14T17:17:10.829Z,81.54
2022-11-14T17:19:45.659Z,82.95
2022-11-14T17:22:14.044Z,82.41
2022-11-14T17:24:42.523Z,82.44
2022-11-14T17:27:12.878Z,82.31
2022-11-14T17:29:42.594Z,82.64
2022-11-14T17:32:10.993Z,82.27
2022-11-14T17:34:39.209Z,82.66
2022-11-14T17:37:07.405Z,83.05
2022-11-14T17:39:35.641Z,82.37
2022-11-14T17:42:03.876Z,83.54
2022-11-14T17:44:32.188Z,82.74
2022-11-14T17:47:04.310Z,83.73
2022-11-14T17:49:33.216Z,83.07
2022-11-14T17:52:01.478Z,83.76
2022-11-14T17:54:31.307Z,83.83
2022-11-14T17:56:59.987Z,84.18
2022-11-14T17:59:28.206Z,84.17
2022-11-14T18:02:01.062Z,84.08
2022-11-14T18:04:31.865Z,83.68
2022-11-14T18:07:01.736Z,84.04
2022-11-14T18:09:32.389Z,84.12
2022-11-14T18:12:01.826Z,84.64
2022-11-14T18:14:32.620Z,83.94
2022-11-14T18:17:16.283Z,84.08
2022-11-14T18:19:46.004Z,83.59
2022-11-14T18:22:14.179Z,83.77
2022-11-14T18:24:47.188Z,84.12
2022-11-14T18:27:16.368Z,83.42
2022-11-14T18:29:44.637Z,83.09
2022-11-14T18:32:12.894Z,83.37
2022-11-14T18:34:41.978Z,83.79
2022-11-14T18:37:11.644Z,83.83
2022-11-14T18:39:39.795Z,83.79
2022-11-14T18:42:08.052Z,83.81
2022-11-14T18:44:36.319Z,84.16
2022-11-14T18:47:04.526Z,84.26
2022-11-14T18:49:32.768Z,83.82
2022-11-14T18:52:05.476Z,84.65
2022-11-14T18:54:40.141Z,83.88
2022-11-14T18:57:08.401Z,84.06
2022-11-14T18:59:36.962Z,83.69
2022-11-14T19:02:05.381Z,83.49
2022-11-14T19:04:33.995Z,84.01
2022-11-14T19:07:02.274Z,83.62
2022-11-14T19:09:31.187Z,84.15
2022-11-14T19:12:18.362Z,84.40
2022-11-14T19:14:46.909Z,83.78
2022-11-14T19:17:18.707Z,83.69
2022-11-14T19:19:46.924Z,83.50
2022-11-14T19:22:15.167Z,84.15
2022-11-14T19:24:43.481Z,83.39
2022-11-14T19:27:13.518Z,83.71
2022-11-14T19:29:41.853Z,83.50
2022-11-14T19:32:10.137Z,83.33
2022-11-14T19:34:38.611Z,83.54
2022-11-14T19:37:08.458Z,83.46
2022-11-14T19:39:36.747Z,83.01
2022-11-14T19:42:05.260Z,83.65
2022-11-14T19:44:35.565Z,83.14
2022-11-14T19:47:03.824Z,82.96
2022-11-14T19:49:32.161Z,83.67
2022-11-14T19:52:00.432Z,83.94
2022-11-14T19:54:28.725Z,83.82
2022-11-14T19:56:57.055Z,83.77
2022-11-14T19:59:27.857Z,83.02
2022-11-14T20:01:57.588Z,82.88
2022-11-14T20:04:28.599Z,83.01
2022-11-14T20:06:57.543Z,83.41
2022-11-14T20:09:25.948Z,83.59
2022-11-14T20:11:54.242Z,82.57
2022-11-14T20:14:22.488Z,83.16
2022-11-14T20:16:51.096Z,82.73
2022-11-14T20:19:20.808Z,83.10
2022-11-14T20:21:50.614Z,83.36
2022-11-14T20:24:21.638Z,83.13
2022-11-14T20:26:49.898Z,82.57
2022-11-14T20:29:18.182Z,83.47
2022-11-14T20:31:46.395Z,82.48
2022-11-14T20:34:14.911Z,82.89
2022-11-14T20:37:09.305Z,82.96
2022-11-14T20:39:33.002Z,82.46
2022-11-14T20:42:01.464Z,82.29
2022-11-14T20:44:29.803Z,82.97
2022-11-14T20:46:58.032Z,82.85
2022-11-14T20:49:26.377Z,82.65
2022-11-14T20:51:55.942Z,82.85
2022-11-14T20:54:25.464Z,83.10
2022-11-14T20:56:53.677Z,83.30
2022-11-14T20:59:22.111Z,83.39
2022-11-14T21:01:50.853Z,82.79
2022-11-14T21:04:19.376Z,82.55
2022-11-14T21:06:47.676Z,82.82
2022-11-14T21:09:17.670Z,82.51
2022-11-14T21:11:45.980Z,83.02
2022-11-14T21:14:14.539Z,83.28
2022-11-14T21:16:42.832Z,83.17
2022-11-14T21:19:11.163Z,82.48
2022-11-14T21:21:39.750Z,82.41
2022-11-14T21:24:08.972Z,83.00
2022-11-14T21:26:40.805Z,82.60
2022-11-14T21:29:16.134Z,82.66
2022-11-14T21:31:46.669Z,82.44
2022-11-14T21:34:18.143Z,82.22
2022-11-14T21:36:47.329Z,82.17
2022-11-14T21:39:17.714Z,82.86
2022-11-14T21:41:49.331Z,83.15
2022-11-14T21:44:18.953Z,82.49
2022-11-14T21:46:48.651Z,82.41
2022-11-14T21:49:17.346Z,83.08
2022-11-14T21:51:45.804Z,82.37
2022-11-14T21:54:14.091Z,82.96
2022-11-14T21:56:42.366Z,82.26
2022-11-14T21:59:18.796Z,82.46
2022-11-14T22:02:08.069Z,82.79
2022-11-14T22:04:37.524Z,82.72
2022-11-14T22:07:09.112Z,82.60
2022-11-14T22:09:42.533Z,82.68
2022-11-14T22:12:13.372Z,82.53
2022-11-14T22:14:42.994Z,81.92
2022-11-14T22:17:11.294Z,82.27
2022-11-14T22:19:39.564Z,83.21
2022-11-14T22:22:08.075Z,82.77
2022-11-14T22:24:36.436Z,82.72
2022-11-14T22:27:04.799Z,82.95
2022-11-14T22:29:33.072Z,82.90
2022-11-14T22:32:02.654Z,83.43
2022-11-14T22:34:30.929Z,83.16
2022-11-14T22:37:00.007Z,83.11
2022-11-14T22:39:28.374Z,82.53
2022-11-14T22:41:56.583Z,83.02
2022-11-14T22:44:24.901Z,82.73
2022-11-14T22:46:53.134Z,82.81
2022-11-14T22:49:22.750Z,82.62
2022-11-14T22:51:51.052Z,82.85
2022-11-14T22:54:20.861Z,82.50
2022-11-14T22:56:49.152Z,82.95
2022-11-14T22:59:17.403Z,83.25
2022-11-14T23:01:45.757Z,82.99
2022-11-14T23:04:14.206Z,82.83
2022-11-14T23:06:44.196Z,83.01
2022-11-14T23:09:12.672Z,82.93
2022-11-14T23:11:41.098Z,82.32
2022-11-14T23:14:12.924Z,82.59
2022-11-14T23:16:41.097Z,83.27
2022-11-14T23:19:09.680Z,82.79
2022-11-14T23:21:38.974Z,83.03
2022-11-14T23:24:14.949Z,83.03
2022-11-14T23:26:43.275Z,82.58
2022-11-14T23:29:15.076Z,82.62
2022-11-14T23:31:43.321Z,82.76
2022-11-14T23:34:11.492Z,82.52
2022-11-14T23:36:39.744Z,82.52
2022-11-14T23:39:09.343Z,82.43
2022-11-14T23:41:37.538Z,82.54
2022-11-14T23:44:06.207Z,82.96
2022-11-14T23:46:34.445Z,82.87
2022-11-14T23:49:02.955Z,82.64
2022-11-14T23:51:31.131Z,83.16
2022-11-14T23:53:59.429Z,83.02
2022-11-14T23:56:29.008Z,82.98
2022-11-14T23:58:57.988Z,82.48
